createdAt,value
2022-08-07T00:00:19.946Z,14.66
2022-08-07T00:01:43.687Z,14.66
2022-08-07T00:02:41.101Z,14.74
2022-08-07T00:03:19.915Z,14.74
2022-08-07T00:04:24.486Z,14.86
2022-08-07T00:05:18.945Z,14.78
2022-08-07T00:06:29.289Z,14.78
2022-08-07T00:07:19.950Z,14.71
2022-08-07T00:08:18.866Z,14.61
2022-08-07T00:09:21.227Z,14.48
2022-08-07T00:10:26.482Z,14.64
2022-08-07T00:11:20.832Z,14.52
2022-08-07T00:12:19.817Z,14.53
2022-08-07T00:13:25.635Z,14.53
2022-08-07T00:14:19.841Z,14.56
2022-08-07T00:15:19.793Z,14.54
2022-08-07T00:16:21.612Z,14.54
2022-08-07T00:17:19.778Z,14.49
2022-08-07T00:18:20.271Z,14.59
2022-08-07T00:19:21.491Z,14.59
2022-08-07T00:20:29.900Z,14.56
2022-08-07T00:21:57.508Z,14.49
2022-08-07T00:22:24.414Z,14.44
2022-08-07T00:23:21.174Z,14.48
2022-08-07T00:24:18.728Z,14.57
2022-08-07T00:25:18.708Z,14.54
2022-08-07T00:26:59.234Z,14.57
2022-08-07T00:27:19.688Z,14.56
2022-08-07T00:28:18.671Z,14.54
2022-08-07T00:29:18.658Z,14.56
2022-08-07T00:30:26.848Z,14.57
2022-08-07T00:31:19.636Z,14.46
2022-08-07T00:32:18.641Z,14.41
2022-08-07T00:33:19.619Z,14.46
2022-08-07T00:34:18.630Z,14.42
2022-08-07T00:35:18.649Z,14.45
2022-08-07T00:36:18.592Z,14.45
2022-08-07T00:37:18.584Z,14.46
2022-08-07T00:38:31.585Z,14.49
2022-08-07T00:39:20.655Z,14.41
2022-08-07T00:40:39.272Z,14.42
2022-08-07T00:41:19.561Z,14.41
2022-08-07T00:42:18.536Z,14.46
2022-08-07T00:44:01.046Z,14.34
2022-08-07T00:44:19.518Z,14.34
2022-08-07T00:45:18.505Z,14.34
2022-08-07T00:46:18.539Z,14.42
2022-08-07T00:48:07.821Z,14.44
2022-08-07T00:48:19.569Z,14.46
2022-08-07T00:50:16.917Z,14.45
2022-08-07T00:50:50.628Z,14.46
2022-08-07T00:51:19.489Z,14.48
2022-08-07T00:52:20.127Z,14.39
2022-08-07T00:53:18.416Z,14.38
2022-08-07T00:54:19.845Z,14.42
2022-08-07T00:55:25.561Z,14.34
2022-08-07T00:56:19.400Z,14.41
2022-08-07T00:57:18.400Z,14.49
2022-08-07T00:58:18.380Z,14.39
2022-08-07T00:59:20.035Z,14.46
2022-08-07T01:00:19.359Z,14.44
2022-08-07T01:01:18.492Z,14.35
2022-08-07T01:02:28.618Z,14.49
2022-08-07T01:03:19.329Z,14.45
2022-08-07T01:04:21.710Z,14.48
2022-08-07T01:05:19.840Z,14.35
2022-08-07T01:06:18.299Z,14.42
2022-08-07T01:07:18.305Z,14.44
2022-08-07T01:08:18.280Z,14.46
2022-08-07T01:10:03.921Z,14.45
2022-08-07T01:10:19.257Z,14.34
2022-08-07T01:12:10.298Z,14.45
2022-08-07T01:12:29.663Z,14.45
2022-08-07T01:13:19.226Z,14.46
2022-08-07T01:14:21.475Z,14.57
2022-08-07T01:15:19.210Z,14.46
2022-08-07T01:16:29.981Z,14.54
2022-08-07T01:17:19.217Z,14.49
2022-08-07T01:18:18.184Z,14.39
2022-08-07T01:19:19.657Z,14.39
2022-08-07T01:20:18.169Z,14.39
2022-08-07T01:21:25.807Z,14.41
2022-08-07T01:22:22.891Z,14.34
2022-08-07T01:23:19.189Z,14.42
2022-08-07T01:24:21.397Z,14.36
2022-08-07T01:25:54.580Z,14.44
2022-08-07T01:26:19.553Z,14.46
2022-08-07T01:27:19.991Z,14.39
2022-08-07T01:28:18.107Z,14.34
2022-08-07T01:29:18.066Z,14.39
2022-08-07T01:30:19.026Z,14.45
2022-08-07T01:31:18.131Z,14.36
2022-08-07T01:32:18.037Z,14.39
2022-08-07T01:33:18.030Z,14.38
2022-08-07T01:34:18.906Z,14.24
2022-08-07T01:35:18.006Z,14.26
2022-08-07T01:36:18.994Z,14.29
2022-08-07T01:37:19.063Z,14.30
2022-08-07T01:38:25.394Z,14.35
2022-08-07T01:39:19.014Z,14.39
2022-08-07T01:40:17.959Z,14.44
2022-08-07T01:41:26.260Z,14.38
2022-08-07T01:42:38.917Z,14.39
2022-08-07T01:43:18.925Z,14.30
2022-08-07T01:44:17.948Z,14.29
2022-08-07T01:45:22.795Z,14.23
2022-08-07T01:46:18.904Z,14.27
2022-08-07T01:48:19.414Z,14.20
2022-08-07T01:48:29.379Z,14.20
2022-08-07T01:49:21.424Z,14.20
2022-08-07T01:50:22.708Z,14.17
2022-08-07T01:52:01.103Z,14.20
2022-08-07T01:52:18.842Z,14.17
2022-08-07T01:53:21.077Z,14.19
2022-08-07T01:54:37.058Z,14.19
2022-08-07T01:55:22.430Z,14.16
2022-08-07T01:56:18.804Z,14.26
2022-08-07T01:57:24.570Z,14.21
2022-08-07T01:58:29.132Z,14.21
2022-08-07T01:59:18.776Z,14.23
2022-08-07T02:00:17.804Z,14.21
2022-08-07T02:01:58.937Z,14.17
2022-08-07T02:02:32.856Z,14.26
2022-08-07T02:03:21.837Z,14.16
2022-08-07T02:04:18.793Z,14.08
2022-08-07T02:05:47.724Z,14.06
2022-08-07T02:06:30.855Z,14.06
2022-08-07T02:07:18.699Z,14.02
2022-08-07T02:08:17.691Z,14.02
2022-08-07T02:09:33.824Z,14.11
2022-08-07T02:10:18.668Z,13.96
2022-08-07T02:11:57.638Z,14.13
2022-08-07T02:12:18.650Z,14.08
2022-08-07T02:13:17.641Z,14.08
2022-08-07T02:14:36.325Z,14.13
2022-08-07T02:15:18.629Z,14.13
2022-08-07T02:16:17.611Z,14.16
2022-08-07T02:17:27.515Z,14.06
2022-08-07T02:18:18.612Z,14.09
2022-08-07T02:20:05.063Z,14.16
2022-08-07T02:20:23.371Z,14.12
2022-08-07T02:21:18.562Z,14.08
2022-08-07T02:22:18.577Z,14.19
2022-08-07T02:23:20.024Z,14.16
2022-08-07T02:24:18.537Z,14.11
2022-08-07T02:25:18.364Z,14.17
2022-08-07T02:26:33.002Z,14.17
2022-08-07T02:27:18.564Z,14.12
2022-08-07T02:28:24.710Z,14.19
2022-08-07T02:29:18.486Z,14.23
2022-08-07T02:30:17.476Z,14.21
2022-08-07T02:31:29.159Z,14.11
2022-08-07T02:32:18.459Z,14.20
2022-08-07T02:33:18.466Z,14.17
2022-08-07T02:34:18.066Z,14.13
2022-08-07T02:35:20.413Z,14.19
2022-08-07T02:36:29.500Z,14.09
2022-08-07T02:37:18.410Z,14.19
2022-08-07T02:38:17.413Z,14.23
2022-08-07T02:39:42.855Z,14.13
2022-08-07T02:40:30.871Z,14.20
2022-08-07T02:41:21.695Z,14.12
2022-08-07T02:42:17.361Z,14.16
2022-08-07T02:43:17.368Z,14.09
2022-08-07T02:44:17.342Z,14.11
2022-08-07T02:45:55.900Z,14.05
2022-08-07T02:46:18.325Z,14.11
2022-08-07T02:47:19.250Z,14.12
2022-08-07T02:48:18.342Z,14.09
2022-08-07T02:49:56.431Z,14.23
2022-08-07T02:50:18.428Z,14.19
2022-08-07T02:51:42.847Z,14.27
2022-08-07T02:52:18.266Z,14.24
2022-08-07T02:53:17.286Z,14.35
2022-08-07T02:54:17.251Z,14.30
2022-08-07T02:55:28.594Z,14.21
2022-08-07T02:56:21.890Z,14.29
2022-08-07T02:57:17.217Z,14.31
2022-08-07T02:58:17.208Z,14.34
2022-08-07T02:59:17.211Z,14.31
2022-08-07T03:00:18.310Z,14.31
2022-08-07T03:01:19.164Z,14.38
2022-08-07T03:02:18.248Z,14.26
2022-08-07T03:03:21.073Z,14.31
2022-08-07T03:04:18.162Z,14.35
2022-08-07T03:05:20.802Z,14.27
2022-08-07T03:06:29.640Z,14.26
2022-08-07T03:07:18.120Z,14.30
2022-08-07T03:08:17.110Z,14.24
2022-08-07T03:09:42.330Z,14.27
2022-08-07T03:10:18.089Z,14.29
2022-08-07T03:11:18.082Z,14.36
2022-08-07T03:12:22.345Z,14.30
2022-08-07T03:13:19.667Z,14.30
2022-08-07T03:14:17.097Z,14.34
2022-08-07T03:15:30.352Z,14.30
2022-08-07T03:16:18.032Z,14.36
2022-08-07T03:17:53.561Z,14.41
2022-08-07T03:18:20.194Z,14.52
2022-08-07T03:19:19.038Z,14.53
2022-08-07T03:20:16.990Z,14.45
2022-08-07T03:21:19.031Z,14.46
2022-08-07T03:22:19.023Z,14.61
2022-08-07T03:23:19.051Z,14.48
2022-08-07T03:24:17.805Z,14.57
2022-08-07T03:25:16.961Z,14.59
2022-08-07T03:26:21.208Z,14.53
2022-08-07T03:27:30.240Z,14.46
2022-08-07T03:28:37.143Z,14.45
2022-08-07T03:29:17.961Z,14.44
2022-08-07T03:30:16.894Z,14.42
2022-08-07T03:31:16.892Z,14.29
2022-08-07T03:32:16.867Z,14.20
2022-08-07T03:33:16.866Z,13.98
2022-08-07T03:34:18.892Z,14.06
2022-08-07T03:35:18.784Z,13.93
2022-08-07T03:36:17.871Z,13.99
2022-08-07T03:37:16.824Z,14.02
2022-08-07T03:38:16.813Z,14.05
2022-08-07T03:39:16.953Z,14.09
2022-08-07T03:40:17.230Z,14.09
2022-08-07T03:41:16.791Z,14.24
2022-08-07T03:42:16.782Z,14.19
2022-08-07T03:43:16.774Z,14.21
2022-08-07T03:44:16.764Z,14.16
2022-08-07T03:45:29.391Z,14.27
2022-08-07T03:46:18.617Z,14.20
2022-08-07T03:47:16.752Z,14.30
2022-08-07T03:48:16.728Z,14.17
2022-08-07T03:49:16.740Z,14.19
2022-08-07T03:50:16.753Z,14.27
2022-08-07T03:51:17.699Z,14.23
2022-08-07T03:52:22.707Z,14.23
2022-08-07T03:53:17.676Z,14.21
2022-08-07T03:54:36.485Z,14.09
2022-08-07T03:55:17.688Z,14.11
2022-08-07T03:56:16.653Z,14.08
2022-08-07T03:58:33.470Z,14.13
2022-08-07T03:59:07.358Z,14.16
2022-08-07T03:59:17.889Z,14.12
2022-08-07T04:00:16.609Z,14.21
2022-08-07T04:01:16.630Z,14.19
2022-08-07T04:02:16.587Z,14.11
2022-08-07T04:03:16.597Z,14.17
2022-08-07T04:04:17.394Z,14.09
2022-08-07T04:05:16.560Z,14.16
2022-08-07T04:06:37.186Z,14.11
2022-08-07T04:07:17.762Z,14.13
2022-08-07T04:08:18.713Z,14.21
2022-08-07T04:09:16.517Z,14.20
2022-08-07T04:10:19.484Z,14.12
2022-08-07T04:12:25.106Z,14.06
2022-08-07T04:12:26.215Z,14.04
2022-08-07T04:13:17.478Z,14.09
2022-08-07T04:14:37.706Z,14.02
2022-08-07T04:15:17.495Z,14.08
2022-08-07T04:16:30.057Z,14.09
2022-08-07T04:17:21.028Z,14.08
2022-08-07T04:18:58.500Z,14.08
2022-08-07T04:19:17.572Z,14.11
2022-08-07T04:20:16.411Z,14.09
2022-08-07T04:21:16.631Z,14.11
2022-08-07T04:22:17.675Z,14.12
2022-08-07T04:23:19.438Z,14.09
2022-08-07T04:24:30.347Z,14.20
2022-08-07T04:25:17.362Z,14.19
2022-08-07T04:26:16.923Z,14.19
2022-08-07T04:27:25.287Z,14.26
2022-08-07T04:28:17.337Z,14.23
2022-08-07T04:29:16.349Z,14.17
2022-08-07T04:30:35.831Z,14.24
2022-08-07T04:31:19.862Z,14.39
2022-08-07T04:32:16.346Z,14.42
2022-08-07T04:33:16.288Z,14.38
2022-08-07T04:34:17.206Z,14.56
2022-08-07T04:35:17.270Z,14.59
2022-08-07T04:36:16.259Z,14.53
2022-08-07T04:37:20.500Z,14.63
2022-08-07T04:38:16.258Z,14.71
2022-08-07T04:39:17.642Z,14.72
2022-08-07T04:40:16.237Z,14.83
2022-08-07T04:41:19.183Z,14.86
2022-08-07T04:42:16.213Z,14.74
2022-08-07T04:43:16.220Z,15.01
2022-08-07T04:44:18.799Z,15.01
2022-08-07T04:45:19.711Z,15.13
2022-08-07T04:46:25.845Z,15.27
2022-08-07T04:47:23.450Z,15.31
2022-08-07T04:48:17.409Z,15.43
2022-08-07T04:49:24.249Z,15.30
2022-08-07T04:50:17.128Z,15.37
2022-08-07T04:51:16.119Z,15.51
2022-08-07T04:52:18.433Z,15.56
2022-08-07T04:53:20.897Z,15.51
2022-08-07T04:54:17.097Z,15.52
2022-08-07T04:58:10.968Z,15.60
2022-08-07T04:58:11.763Z,15.58
2022-08-07T04:58:13.927Z,15.64
2022-08-07T04:58:33.688Z,15.64
2022-08-07T05:00:12.244Z,15.60
2022-08-07T05:00:30.221Z,15.62
2022-08-07T05:01:18.083Z,15.62
2022-08-07T05:02:16.802Z,15.74
2022-08-07T05:03:17.232Z,15.84
2022-08-07T05:04:18.001Z,15.81
2022-08-07T05:05:53.207Z,15.92
2022-08-07T05:06:19.586Z,16.08
2022-08-07T05:07:19.803Z,16.10
2022-08-07T05:08:15.944Z,16.03
2022-08-07T05:09:15.971Z,16.10
2022-08-07T05:10:15.929Z,16.22
2022-08-07T05:11:19.439Z,16.50
2022-08-07T05:12:26.830Z,16.73
2022-08-07T05:14:52.969Z,17.49
2022-08-07T05:14:53.681Z,17.06
2022-08-07T05:15:23.495Z,17.86
2022-08-07T05:16:17.869Z,18.17
2022-08-07T05:17:16.098Z,18.50
2022-08-07T05:18:16.852Z,18.83
2022-08-07T05:19:15.841Z,19.07
2022-08-07T05:20:15.875Z,19.27
2022-08-07T05:21:15.825Z,19.43
2022-08-07T05:22:26.593Z,19.58
2022-08-07T05:23:16.803Z,19.45
2022-08-07T05:24:15.794Z,19.23
2022-08-07T05:25:26.104Z,18.94
2022-08-07T05:26:23.716Z,18.74
2022-08-07T05:28:01.954Z,18.57
2022-08-07T05:28:22.558Z,18.53
2022-08-07T05:29:16.746Z,18.46
2022-08-07T05:30:15.736Z,18.38
2022-08-07T05:31:16.832Z,18.20
2022-08-07T05:32:15.717Z,18.13
2022-08-07T05:33:15.710Z,18.09
2022-08-07T05:34:15.915Z,17.98
2022-08-07T05:35:15.691Z,17.95
2022-08-07T05:36:22.594Z,17.80
2022-08-07T05:37:25.371Z,17.81
2022-08-07T05:39:00.769Z,17.99
2022-08-07T05:40:18.016Z,18.16
2022-08-07T05:40:18.594Z,18.54
2022-08-07T05:41:17.047Z,18.78
2022-08-07T05:42:15.649Z,19.10
2022-08-07T05:43:16.610Z,19.35
2022-08-07T05:44:15.607Z,19.67
2022-08-07T05:45:26.067Z,19.67
2022-08-07T05:46:16.606Z,19.72
2022-08-07T05:47:18.643Z,19.61
2022-08-07T05:48:15.559Z,19.46
2022-08-07T05:49:15.554Z,19.40
2022-08-07T05:50:15.540Z,19.23
2022-08-07T05:51:15.537Z,19.10
2022-08-07T05:52:15.587Z,18.91
2022-08-07T05:54:13.456Z,18.83
2022-08-07T05:54:44.555Z,18.82
2022-08-07T05:55:16.492Z,18.76
2022-08-07T05:56:15.486Z,18.76
2022-08-07T05:57:15.513Z,18.68
2022-08-07T05:58:15.468Z,18.68
2022-08-07T05:59:15.455Z,18.65
2022-08-07T06:00:16.317Z,18.51
2022-08-07T06:01:15.470Z,18.54
2022-08-07T06:02:20.084Z,18.47
2022-08-07T06:03:17.431Z,18.56
2022-08-07T06:04:17.472Z,18.59
2022-08-07T06:05:16.061Z,18.60
2022-08-07T06:06:17.315Z,18.59
2022-08-07T06:07:22.946Z,18.82
2022-08-07T06:08:30.786Z,18.78
2022-08-07T06:09:16.357Z,18.94
2022-08-07T06:10:15.677Z,19.07
2022-08-07T06:11:15.334Z,19.28
2022-08-07T06:12:15.504Z,19.49
2022-08-07T06:13:15.530Z,19.87
2022-08-07T06:14:21.383Z,20.02
2022-08-07T06:15:16.430Z,20.34
2022-08-07T06:16:15.291Z,20.76
2022-08-07T06:17:15.278Z,21.08
2022-08-07T06:18:15.274Z,21.55
2022-08-07T06:19:17.780Z,21.81
2022-08-07T06:20:25.560Z,22.15
2022-08-07T06:22:15.117Z,21.86
2022-08-07T06:22:24.019Z,22.05
2022-08-07T06:23:46.113Z,22.44
2022-08-07T06:24:46.123Z,22.26
2022-08-07T06:25:16.209Z,22.33
2022-08-07T06:26:15.195Z,22.30
2022-08-07T06:27:15.185Z,22.63
2022-08-07T06:28:16.172Z,22.84
2022-08-07T06:29:16.192Z,22.29
2022-08-07T06:30:32.145Z,21.74
2022-08-07T06:31:16.150Z,21.63
2022-08-07T06:32:15.135Z,21.68
2022-08-07T06:33:16.269Z,21.33
2022-08-07T06:34:15.114Z,21.53
2022-08-07T06:35:18.032Z,21.98
2022-08-07T06:36:15.096Z,21.91
2022-08-07T06:37:19.077Z,21.82
2022-08-07T06:38:20.023Z,21.73
2022-08-07T06:40:16.130Z,21.73
2022-08-07T06:40:20.892Z,21.73
2022-08-07T06:41:16.106Z,21.42
2022-08-07T06:42:16.038Z,21.30
2022-08-07T06:43:20.919Z,20.71
2022-08-07T06:44:16.326Z,20.83
2022-08-07T06:45:17.957Z,20.83
2022-08-07T06:46:14.998Z,21.58
2022-08-07T06:47:15.988Z,21.75
2022-08-07T06:48:15.233Z,21.61
2022-08-07T06:49:15.027Z,21.11
2022-08-07T06:50:14.959Z,21.31
2022-08-07T06:51:15.344Z,21.68
2022-08-07T06:52:14.940Z,22.27
2022-08-07T06:53:18.542Z,21.96
2022-08-07T06:55:32.303Z,21.18
2022-08-07T06:55:32.525Z,20.94
2022-08-07T06:56:16.034Z,20.46
2022-08-07T06:57:14.899Z,20.25
2022-08-07T06:58:16.613Z,20.75
2022-08-07T07:00:14.047Z,20.94
2022-08-07T07:00:18.260Z,21.11
2022-08-07T07:01:15.876Z,20.76
2022-08-07T07:02:14.902Z,20.69
2022-08-07T07:03:17.209Z,20.60
2022-08-07T07:04:28.080Z,20.46
2022-08-07T07:06:05.103Z,20.97
2022-08-07T07:06:23.742Z,20.71
2022-08-07T07:07:58.620Z,20.40
2022-08-07T07:08:18.648Z,20.10
2022-08-07T07:09:15.776Z,20.02
2022-08-07T07:10:14.768Z,19.95
2022-08-07T07:12:07.442Z,19.85
2022-08-07T07:12:21.748Z,19.98
2022-08-07T07:13:16.735Z,20.44
2022-08-07T07:14:15.725Z,20.58
2022-08-07T07:15:24.038Z,20.58
2022-08-07T07:16:19.529Z,20.87
2022-08-07T07:17:16.166Z,21.15
2022-08-07T07:18:14.689Z,21.30
2022-08-07T07:19:55.101Z,20.83
2022-08-07T07:20:15.690Z,21.08
2022-08-07T07:21:19.734Z,20.90
2022-08-07T07:22:37.000Z,20.90
2022-08-07T07:24:11.033Z,21.06
2022-08-07T07:24:15.630Z,21.28
2022-08-07T07:26:32.957Z,21.45
2022-08-07T07:26:34.177Z,20.72
2022-08-07T07:27:15.622Z,20.38
2022-08-07T07:28:42.624Z,20.07
2022-08-07T07:29:56.651Z,19.53
2022-08-07T07:30:32.383Z,19.71
2022-08-07T07:31:17.205Z,20.02
2022-08-07T07:32:15.588Z,20.46
2022-08-07T07:33:14.551Z,20.40
2022-08-07T07:34:15.508Z,20.53
2022-08-07T07:35:14.527Z,20.78
2022-08-07T07:36:17.195Z,20.97
2022-08-07T07:37:45.192Z,21.24
2022-08-07T07:38:15.502Z,21.15
2022-08-07T07:39:14.529Z,21.30
2022-08-07T07:40:15.337Z,21.67
2022-08-07T07:41:14.576Z,21.67
2022-08-07T07:42:17.536Z,21.85
2022-08-07T07:43:18.695Z,22.02
2022-08-07T07:44:21.452Z,22.24
2022-08-07T07:45:15.918Z,22.14
2022-08-07T07:46:37.035Z,21.19
2022-08-07T07:47:23.081Z,20.87
2022-08-07T07:48:35.101Z,20.56
2022-08-07T07:50:34.215Z,20.54
2022-08-07T07:50:34.444Z,20.23
2022-08-07T07:51:15.530Z,20.04
2022-08-07T07:52:15.913Z,19.72
2022-08-07T07:53:23.143Z,19.71
2022-08-07T07:54:15.342Z,19.75
2022-08-07T07:55:14.332Z,19.76
2022-08-07T07:56:14.322Z,19.53
2022-08-07T07:57:14.311Z,19.50
2022-08-07T07:58:14.335Z,19.38
2022-08-07T07:59:14.290Z,19.50
2022-08-07T08:00:21.195Z,19.68
2022-08-07T08:02:01.849Z,19.71
2022-08-07T08:02:22.591Z,19.98
2022-08-07T08:03:17.005Z,20.01
2022-08-07T08:04:15.289Z,19.68
2022-08-07T08:05:15.061Z,19.55
2022-08-07T08:06:14.221Z,19.52
2022-08-07T08:07:14.208Z,19.58
2022-08-07T08:08:33.989Z,19.75
2022-08-07T08:09:15.186Z,19.70
2022-08-07T08:10:14.817Z,19.82
2022-08-07T08:11:18.212Z,19.49
2022-08-07T08:12:31.177Z,19.62
2022-08-07T08:13:16.195Z,19.70
2022-08-07T08:14:14.139Z,19.82
2022-08-07T08:15:14.145Z,19.75
2022-08-07T08:16:14.119Z,19.40
2022-08-07T08:17:57.097Z,19.23
2022-08-07T08:18:17.814Z,19.27
2022-08-07T08:20:15.982Z,19.27
2022-08-07T08:20:17.523Z,19.16
2022-08-07T08:21:15.074Z,18.94
2022-08-07T08:22:14.067Z,19.23
2022-08-07T08:23:14.423Z,19.12
2022-08-07T08:24:36.580Z,18.93
2022-08-07T08:25:24.599Z,18.69
2022-08-07T08:26:15.028Z,18.87
2022-08-07T08:27:14.020Z,19.05
2022-08-07T08:28:16.947Z,19.06
2022-08-07T08:29:15.015Z,19.15
2022-08-07T08:30:14.398Z,19.21
2022-08-07T08:31:16.237Z,19.35
2022-08-07T08:32:18.436Z,19.45
2022-08-07T08:33:15.240Z,19.45
2022-08-07T08:34:19.046Z,19.67
2022-08-07T08:35:14.969Z,19.79
2022-08-07T08:36:13.933Z,19.71
2022-08-07T08:37:59.734Z,19.75
2022-08-07T08:38:14.950Z,19.90
2022-08-07T08:39:15.324Z,19.87
2022-08-07T08:40:16.326Z,19.89
2022-08-07T08:41:14.886Z,20.04
2022-08-07T08:42:13.878Z,20.08
2022-08-07T08:43:13.885Z,20.17
2022-08-07T08:44:13.896Z,20.13
2022-08-07T08:45:13.943Z,20.04
2022-08-07T08:46:13.840Z,20.07
2022-08-07T08:47:13.831Z,20.01
2022-08-07T08:48:13.819Z,19.94
2022-08-07T08:49:13.846Z,19.62
2022-08-07T08:50:17.547Z,19.39
2022-08-07T08:51:26.063Z,19.65
2022-08-07T08:52:16.656Z,19.71
2022-08-07T08:53:14.770Z,19.83
2022-08-07T08:54:13.765Z,20.04
2022-08-07T08:55:21.090Z,20.22
2022-08-07T08:56:16.849Z,20.04
2022-08-07T08:57:13.738Z,20.05
2022-08-07T08:58:20.271Z,20.15
2022-08-07T08:59:16.448Z,20.12
2022-08-07T09:00:13.720Z,20.08
2022-08-07T09:01:15.971Z,20.25
2022-08-07T09:02:14.750Z,19.97
2022-08-07T09:03:13.674Z,19.92
2022-08-07T09:04:13.676Z,20.19
2022-08-07T09:05:14.724Z,20.19
2022-08-07T09:06:13.648Z,20.16
2022-08-07T09:07:13.651Z,20.31
2022-08-07T09:08:17.836Z,20.37
2022-08-07T09:09:23.614Z,20.40
2022-08-07T09:10:14.657Z,20.42
2022-08-07T09:11:14.107Z,20.46
2022-08-07T09:12:30.326Z,20.56
2022-08-07T09:13:14.819Z,20.66
2022-08-07T09:14:13.569Z,20.56
2022-08-07T09:16:20.466Z,20.42
2022-08-07T09:16:21.901Z,20.50
2022-08-07T09:17:14.543Z,20.41
2022-08-07T09:18:15.725Z,20.63
2022-08-07T09:19:51.133Z,20.73
2022-08-07T09:20:35.703Z,20.91
2022-08-07T09:21:34.249Z,20.78
2022-08-07T09:24:28.944Z,20.78
2022-08-07T09:24:54.171Z,20.90
2022-08-07T09:24:54.721Z,20.72
2022-08-07T09:25:17.427Z,21.00
2022-08-07T09:26:13.479Z,21.09
2022-08-07T09:27:13.669Z,21.01
2022-08-07T09:30:04.032Z,20.90
2022-08-07T09:30:05.169Z,21.12
2022-08-07T09:30:14.421Z,21.15
2022-08-07T09:31:15.468Z,21.21
2022-08-07T09:32:17.305Z,21.26
2022-08-07T09:33:24.160Z,21.21
2022-08-07T09:34:14.376Z,20.96
2022-08-07T09:36:04.017Z,20.87
2022-08-07T09:36:14.374Z,20.83
2022-08-07T09:37:13.341Z,20.69
2022-08-07T09:38:13.335Z,20.57
2022-08-07T09:39:27.501Z,20.71
2022-08-07T09:40:14.393Z,20.64
2022-08-07T09:41:13.320Z,20.54
2022-08-07T09:42:17.180Z,20.90
2022-08-07T09:43:14.584Z,20.94
2022-08-07T09:44:29.998Z,21.31
2022-08-07T09:47:50.261Z,21.93
2022-08-07T09:47:52.543Z,21.82
2022-08-07T09:47:55.246Z,21.74
2022-08-07T09:48:14.550Z,22.04
2022-08-07T09:50:01.017Z,22.04
2022-08-07T09:50:18.460Z,21.98
2022-08-07T09:51:14.782Z,22.06
2022-08-07T09:52:33.470Z,21.94
2022-08-07T09:53:14.183Z,21.89
2022-08-07T09:54:16.406Z,21.79
2022-08-07T09:55:17.350Z,21.30
2022-08-07T09:56:14.193Z,21.13
2022-08-07T09:57:14.154Z,20.98
2022-08-07T09:58:13.360Z,21.19
2022-08-07T09:59:14.511Z,21.30
2022-08-07T10:00:14.619Z,21.43
2022-08-07T10:01:14.878Z,21.46
2022-08-07T10:02:14.111Z,21.49
2022-08-07T10:04:05.879Z,21.11
2022-08-07T10:04:15.880Z,21.21
2022-08-07T10:05:13.882Z,21.33
2022-08-07T10:06:17.573Z,21.45
2022-08-07T10:07:24.590Z,21.33
2022-08-07T10:08:14.041Z,21.16
2022-08-07T10:09:15.223Z,21.15
2022-08-07T10:10:21.938Z,21.24
2022-08-07T10:11:59.831Z,21.19
2022-08-07T10:12:21.556Z,21.26
2022-08-07T10:13:15.919Z,21.16
2022-08-07T10:14:13.987Z,21.22
2022-08-07T10:15:15.284Z,21.13
2022-08-07T10:16:12.960Z,21.30
2022-08-07T10:17:14.448Z,21.40
2022-08-07T10:18:13.956Z,21.58
2022-08-07T10:19:45.495Z,21.82
2022-08-07T10:20:13.218Z,21.68
2022-08-07T10:21:19.720Z,21.51
2022-08-07T10:22:16.925Z,21.68
2022-08-07T10:23:12.897Z,21.81
2022-08-07T10:24:17.102Z,21.77
2022-08-07T10:25:13.875Z,21.53
2022-08-07T10:26:12.868Z,21.71
2022-08-07T10:27:12.898Z,21.73
2022-08-07T10:28:12.849Z,21.75
2022-08-07T10:29:12.840Z,21.77
2022-08-07T10:30:13.043Z,22.02
2022-08-07T10:31:12.815Z,21.81
2022-08-07T10:32:16.494Z,21.93
2022-08-07T10:33:15.087Z,21.86
2022-08-07T10:34:15.266Z,21.99
2022-08-07T10:35:14.903Z,21.85
2022-08-07T10:36:12.790Z,22.02
2022-08-07T10:37:12.889Z,22.01
2022-08-07T10:38:35.261Z,22.24
2022-08-07T10:39:13.760Z,22.20
2022-08-07T10:40:12.818Z,22.35
2022-08-07T10:41:12.722Z,22.59
2022-08-07T10:42:21.030Z,22.63
2022-08-07T10:43:13.712Z,22.56
2022-08-07T10:44:13.689Z,22.36
2022-08-07T10:45:12.730Z,22.45
2022-08-07T10:46:12.668Z,22.46
2022-08-07T10:47:14.253Z,22.69
2022-08-07T10:48:12.665Z,22.75
2022-08-07T10:49:12.639Z,22.70
2022-08-07T10:50:12.727Z,23.37
2022-08-07T10:51:16.793Z,23.79
2022-08-07T10:52:14.082Z,23.96
2022-08-07T10:53:12.619Z,24.18
2022-08-07T10:54:13.594Z,24.41
2022-08-07T10:55:26.961Z,24.49
2022-08-07T10:56:20.842Z,24.75
2022-08-07T10:57:13.567Z,24.14
2022-08-07T10:58:12.613Z,23.99
2022-08-07T10:59:13.631Z,24.00
2022-08-07T11:00:39.593Z,24.19
2022-08-07T11:01:15.048Z,24.49
2022-08-07T11:02:32.812Z,24.42
2022-08-07T11:03:13.640Z,24.45
2022-08-07T11:04:31.336Z,24.27
2022-08-07T11:05:14.495Z,24.37
2022-08-07T11:06:18.202Z,24.44
2022-08-07T11:07:14.953Z,24.61
2022-08-07T11:08:13.604Z,25.17
2022-08-07T11:09:12.460Z,25.44
2022-08-07T11:10:13.555Z,25.83
2022-08-07T11:11:12.440Z,25.90
2022-08-07T11:12:12.428Z,25.91
2022-08-07T11:13:16.797Z,25.91
2022-08-07T11:14:43.717Z,25.97
2022-08-07T11:15:17.499Z,25.26
2022-08-07T11:16:13.395Z,24.82
2022-08-07T11:17:13.386Z,24.89
2022-08-07T11:18:13.404Z,24.83
2022-08-07T11:19:12.362Z,24.71
2022-08-07T11:20:12.361Z,24.68
2022-08-07T11:21:12.346Z,24.93
2022-08-07T11:22:26.678Z,25.11
2022-08-07T11:23:13.329Z,25.39
2022-08-07T11:24:13.339Z,25.89
2022-08-07T11:25:12.313Z,26.47
2022-08-07T11:26:13.111Z,27.01
2022-08-07T11:27:13.522Z,27.34
2022-08-07T11:28:15.608Z,27.59
2022-08-07T11:29:13.195Z,27.91
2022-08-07T11:30:18.269Z,27.31
2022-08-07T11:31:13.275Z,26.56
2022-08-07T11:32:12.249Z,26.06
2022-08-07T11:33:14.139Z,25.46
2022-08-07T11:34:12.275Z,25.19
2022-08-07T11:35:12.230Z,25.07
2022-08-07T11:36:12.213Z,25.29
2022-08-07T11:37:12.206Z,24.97
2022-08-07T11:38:17.208Z,24.34
2022-08-07T11:39:14.527Z,23.79
2022-08-07T11:40:12.217Z,24.39
2022-08-07T11:41:18.298Z,24.60
2022-08-07T11:42:18.803Z,25.24
2022-08-07T11:43:15.505Z,25.79
2022-08-07T11:44:14.304Z,25.97
2022-08-07T11:45:13.130Z,25.98
2022-08-07T11:46:12.137Z,26.19
2022-08-07T11:47:12.136Z,26.73
2022-08-07T11:48:18.068Z,27.13
2022-08-07T11:49:50.750Z,26.65
2022-08-07T11:50:32.225Z,25.60
2022-08-07T11:51:44.476Z,25.30
2022-08-07T11:52:13.064Z,25.30
2022-08-07T11:53:12.051Z,25.46
2022-08-07T11:54:12.082Z,25.16
2022-08-07T11:55:18.698Z,24.79
2022-08-07T11:56:27.102Z,24.89
2022-08-07T11:57:14.272Z,25.63
2022-08-07T11:58:13.233Z,26.00
2022-08-07T12:00:07.623Z,26.12
2022-08-07T12:00:18.989Z,25.82
2022-08-07T12:01:13.975Z,25.12
2022-08-07T12:02:20.916Z,25.24
2022-08-07T12:03:45.406Z,24.80
2022-08-07T12:04:12.969Z,24.42
2022-08-07T12:05:15.425Z,24.64
2022-08-07T12:06:37.878Z,24.70
2022-08-07T12:07:22.071Z,25.34
2022-08-07T12:08:25.984Z,25.46
2022-08-07T12:09:16.219Z,26.00
2022-08-07T12:10:12.911Z,26.41
2022-08-07T12:11:21.488Z,26.49
2022-08-07T12:12:12.877Z,26.44
2022-08-07T12:13:17.009Z,27.11
2022-08-07T12:14:12.854Z,27.52
2022-08-07T12:15:35.412Z,27.90
2022-08-07T12:16:12.837Z,28.09
2022-08-07T12:17:19.988Z,28.48
2022-08-07T12:18:12.889Z,28.54
2022-08-07T12:19:11.810Z,27.11
2022-08-07T12:20:30.380Z,26.73
2022-08-07T12:21:14.979Z,26.16
2022-08-07T12:22:38.590Z,25.26
2022-08-07T12:23:14.428Z,25.45
2022-08-07T12:24:37.012Z,24.99
2022-08-07T12:26:00.399Z,24.97
2022-08-07T12:26:29.012Z,25.23
2022-08-07T12:27:14.982Z,25.01
2022-08-07T12:28:11.934Z,25.02
2022-08-07T12:29:11.717Z,24.93
2022-08-07T12:30:11.830Z,25.23
2022-08-07T12:31:11.700Z,24.52
2022-08-07T12:32:13.168Z,24.08
2022-08-07T12:33:23.158Z,24.63
2022-08-07T12:34:12.672Z,25.34
2022-08-07T12:35:11.936Z,25.79
2022-08-07T12:36:11.646Z,26.03
2022-08-07T12:37:22.902Z,26.09
2022-08-07T12:38:29.285Z,26.08
2022-08-07T12:39:44.009Z,25.93
2022-08-07T12:40:36.401Z,25.27
2022-08-07T12:41:13.816Z,24.71
2022-08-07T12:42:13.081Z,24.98
2022-08-07T12:43:11.586Z,25.36
2022-08-07T12:44:17.063Z,26.00
2022-08-07T12:45:13.852Z,25.66
2022-08-07T12:46:11.557Z,25.31
2022-08-07T12:47:11.547Z,25.24
2022-08-07T12:48:28.011Z,25.07
2022-08-07T12:49:25.748Z,25.26
2022-08-07T12:50:39.147Z,25.83
2022-08-07T12:51:17.570Z,26.06
2022-08-07T12:52:13.631Z,25.79